createdAt,value
2023-03-13T00:03:29.067Z,100210.44
2023-03-13T00:08:32.154Z,100193.00
2023-03-13T00:13:37.148Z,100190.47
2023-03-13T00:18:40.760Z,100174.78
2023-03-13T00:23:44.610Z,100154.84
2023-03-13T00:28:51.021Z,100129.44
2023-03-13T00:40:10.991Z,100106.06
2023-03-13T00:45:15.609Z,100092.16
2023-03-13T00:50:18.887Z,100087.84
2023-03-13T00:55:21.943Z,100081.72
2023-03-13T01:00:26.796Z,100063.38
2023-03-13T01:05:29.876Z,100059.09
2023-03-13T01:10:36.259Z,100044.41
2023-03-13T01:15:40.744Z,100038.41
2023-03-13T01:20:43.658Z,100015.78
2023-03-13T01:25:46.545Z,100010.69
2023-03-13T01:30:57.010Z,99997.66
2023-03-13T01:36:06.584Z,99988.28
2023-03-13T01:41:12.252Z,99967.41
2023-03-13T01:46:18.797Z,99949.22
2023-03-13T01:51:33.730Z,99939.75
2023-03-13T01:56:42.258Z,99931.28
2023-03-13T02:01:48.729Z,99917.44
2023-03-13T02:06:55.555Z,99909.75
2023-03-13T02:12:05.661Z,99876.66
2023-03-13T02:17:09.964Z,99869.78
2023-03-13T02:22:22.240Z,99856.81
2023-03-13T02:27:26.734Z,99860.47
2023-03-13T02:32:32.380Z,99847.53
2023-03-13T02:37:36.825Z,99855.56
2023-03-13T02:42:46.446Z,99846.13
2023-03-13T02:47:49.701Z,99848.88
2023-03-13T02:52:56.960Z,99856.91
2023-03-13T02:58:02.783Z,99851.84
2023-03-13T03:03:10.324Z,99852.88
2023-03-13T03:08:13.612Z,99849.50
2023-03-13T03:13:18.464Z,99842.59
2023-03-13T03:18:21.981Z,99843.66
2023-03-13T03:23:25.351Z,99836.81
2023-03-13T03:28:30.462Z,99842.19
2023-03-13T03:33:35.595Z,99826.47
2023-03-13T03:38:42.235Z,99828.31
2023-03-13T03:43:49.332Z,99821.50
2023-03-13T03:48:56.056Z,99819.81
2023-03-13T03:53:59.217Z,99828.72
2023-03-13T03:59:05.844Z,99801.56
2023-03-13T04:04:21.309Z,99792.00
2023-03-13T04:09:31.568Z,99793.84
2023-03-13T04:14:37.176Z,99788.66
2023-03-13T04:19:43.642Z,99789.66
2023-03-13T04:24:46.739Z,99781.94
2023-03-13T04:29:51.250Z,99768.88
2023-03-13T04:35:21.260Z,99776.88
2023-03-13T04:40:44.325Z,99770.81
2023-03-13T04:46:07.088Z,99769.16
2023-03-13T04:51:12.956Z,99742.91
2023-03-13T04:56:42.233Z,99748.22
2023-03-13T05:02:14.338Z,99738.69
2023-03-13T05:07:35.756Z,99745.72
2023-03-13T05:13:08.220Z,99746.66
2023-03-13T05:18:32.936Z,99715.78
2023-03-13T05:24:08.217Z,99744.09
2023-03-13T05:29:34.040Z,99723.09
2023-03-13T05:35:08.111Z,99714.34
2023-03-13T05:40:21.388Z,99704.63
2023-03-13T05:45:39.864Z,99701.97
2023-03-13T05:51:03.023Z,99694.09
2023-03-13T05:56:24.788Z,99696.78
2023-03-13T06:01:46.470Z,99700.34
2023-03-13T06:06:58.501Z,99677.53
2023-03-13T06:12:01.919Z,99682.84
2023-03-13T06:17:06.639Z,99679.34
2023-03-13T06:22:11.042Z,99683.78
2023-03-13T06:27:14.120Z,99680.34
2023-03-13T06:32:17.264Z,99697.06
2023-03-13T06:37:21.742Z,99680.44
2023-03-13T06:42:24.810Z,99679.56
2023-03-13T06:47:27.895Z,99712.97
2023-03-13T06:52:43.153Z,99684.81
2023-03-13T06:57:51.378Z,99688.31
2023-03-13T07:02:54.677Z,99689.16
2023-03-13T07:07:59.079Z,99685.47
2023-03-13T07:13:04.088Z,99680.28
2023-03-13T07:18:07.425Z,99671.59
2023-03-13T07:23:11.791Z,99672.44
2023-03-13T07:28:14.794Z,99690.06
2023-03-13T07:33:18.044Z,99676.84
2023-03-13T07:38:22.602Z,99669.84
2023-03-13T07:43:26.686Z,99683.94
2023-03-13T07:48:32.023Z,99682.22
2023-03-13T07:53:36.686Z,99681.47
2023-03-13T07:58:41.517Z,99669.34
2023-03-13T08:03:45.596Z,99677.28
2023-03-13T08:08:50.811Z,99677.38
2023-03-13T08:13:54.833Z,99665.91
2023-03-13T08:18:59.914Z,99690.25
2023-03-13T08:24:07.080Z,99680.69
2023-03-13T08:29:12.368Z,99652.91
2023-03-13T08:34:16.348Z,99660.97
2023-03-13T08:39:21.707Z,99636.50
2023-03-13T08:44:24.944Z,99626.84
2023-03-13T08:49:28.131Z,99612.78
2023-03-13T08:54:32.733Z,99631.28
2023-03-13T08:59:37.756Z,99613.75
2023-03-13T09:04:41.179Z,99625.19
2023-03-13T09:09:45.981Z,99598.78
2023-03-13T09:14:49.537Z,99568.81
2023-03-13T09:20:00.180Z,99597.91
2023-03-13T09:25:06.266Z,99604.13
2023-03-13T09:30:10.682Z,99575.97
2023-03-13T09:35:13.661Z,99576.84
2023-03-13T09:40:23.130Z,99581.22
2023-03-13T09:45:34.209Z,99580.34
2023-03-13T09:50:41.492Z,99579.50
2023-03-13T09:55:48.391Z,99561.84
2023-03-13T10:00:56.317Z,99557.34
2023-03-13T10:06:03.054Z,99557.31
2023-03-13T10:11:12.308Z,99548.28
2023-03-13T10:16:19.563Z,99556.03
2023-03-13T10:21:26.350Z,99573.66
2023-03-13T10:26:33.431Z,99540.19
2023-03-13T10:31:38.764Z,99531.47
2023-03-13T10:36:43.899Z,99565.84
2023-03-13T10:41:50.272Z,99566.78
2023-03-13T10:46:53.806Z,99568.59
2023-03-13T10:52:00.725Z,99527.13
2023-03-13T10:57:29.322Z,99526.28
2023-03-13T11:02:35.721Z,99502.44
2023-03-13T11:07:40.615Z,99519.97
2023-03-13T11:12:47.929Z,99490.94
2023-03-13T11:17:56.522Z,99500.59
2023-03-13T11:23:16.014Z,99506.69
2023-03-13T11:28:34.918Z,99490.72
2023-03-13T11:33:47.515Z,99474.88
2023-03-13T11:39:05.082Z,99465.13
2023-03-13T11:44:31.883Z,99457.88
2023-03-13T11:49:58.949Z,99488.03
2023-03-13T11:55:22.277Z,99455.25
2023-03-13T12:00:33.016Z,99463.66
2023-03-13T12:05:43.493Z,99466.38
2023-03-13T12:10:52.769Z,99437.06
2023-03-13T12:16:03.053Z,99434.41
2023-03-13T12:21:13.382Z,99395.44
2023-03-13T12:26:20.911Z,99433.25
2023-03-13T12:31:30.356Z,99414.78
2023-03-13T12:36:41.539Z,99441.31
2023-03-13T12:41:45.801Z,99425.56
2023-03-13T12:47:02.888Z,99410.63
2023-03-13T12:52:43.739Z,99411.19
2023-03-13T12:58:16.074Z,99403.63
2023-03-13T13:03:31.755Z,99392.31
2023-03-13T13:08:39.927Z,99396.22
2023-03-13T13:13:43.065Z,99432.97
2023-03-13T13:18:47.426Z,99419.41
2023-03-13T13:23:54.247Z,99408.25
2023-03-13T13:28:59.130Z,99411.06
2023-03-13T13:34:05.751Z,99391.66
2023-03-13T13:39:32.478Z,99404.88
2023-03-13T13:45:20.667Z,99401.50
2023-03-13T13:50:31.274Z,99412.84
2023-03-13T13:55:44.562Z,99392.50
2023-03-13T14:00:53.800Z,99374.91
2023-03-13T14:06:03.541Z,99378.50
2023-03-13T14:11:17.828Z,99349.47
2023-03-13T14:16:25.840Z,99344.00
2023-03-13T14:21:30.725Z,99325.34
2023-03-13T14:26:34.076Z,99315.53
2023-03-13T14:31:38.712Z,99311.13
2023-03-13T14:36:51.213Z,99276.78
2023-03-13T14:41:54.502Z,99304.84
2023-03-13T14:46:59.710Z,99290.66
2023-03-13T14:52:08.037Z,99283.66
2023-03-13T14:57:16.618Z,99300.63
2023-03-13T15:02:29.659Z,99283.69
2023-03-13T15:07:40.797Z,99299.53
2023-03-13T15:12:45.632Z,99285.25
2023-03-13T15:17:48.794Z,99290.44
2023-03-13T15:22:53.291Z,99277.28
2023-03-13T15:27:56.472Z,99262.41
2023-03-13T15:33:01.254Z,99267.75
2023-03-13T15:38:13.564Z,99239.56
2023-03-13T15:43:17.300Z,99245.03
2023-03-13T15:48:22.375Z,99230.91
2023-03-13T15:53:29.325Z,99244.13
2023-03-13T15:58:32.779Z,99208.94
2023-03-13T16:03:36.071Z,99204.59
2023-03-13T16:08:40.688Z,99187.06
2023-03-13T16:13:44.151Z,99189.72
2023-03-13T16:18:47.535Z,99181.94
2023-03-13T16:23:52.163Z,99171.44
2023-03-13T16:28:56.466Z,99139.75
2023-03-13T16:34:00.801Z,99155.88
2023-03-13T16:39:10.205Z,99148.88
2023-03-13T16:44:13.349Z,99134.06
2023-03-13T16:49:16.797Z,99140.44
2023-03-13T16:54:21.860Z,99134.47
2023-03-13T16:59:25.747Z,99144.41
2023-03-13T17:04:29.083Z,99149.78
2023-03-13T17:09:33.711Z,99147.34
2023-03-13T17:14:36.966Z,99155.41
2023-03-13T17:19:40.162Z,99153.84
2023-03-13T17:24:44.837Z,99148.72
2023-03-13T17:29:47.971Z,99134.81
2023-03-13T17:34:51.417Z,99142.03
2023-03-13T17:39:56.123Z,99136.84
2023-03-13T17:44:59.456Z,99129.88
2023-03-13T17:50:04.720Z,99134.34
2023-03-13T17:55:13.002Z,99134.38
2023-03-13T18:00:23.697Z,99142.34
2023-03-13T18:05:27.569Z,99136.25
2023-03-13T18:10:32.507Z,99128.34
2023-03-13T18:15:35.727Z,99125.75
2023-03-13T18:20:38.943Z,99121.38
2023-03-13T18:25:43.608Z,99117.88
2023-03-13T18:30:49.084Z,99120.53
2023-03-13T18:35:52.355Z,99099.44
2023-03-13T18:40:57.125Z,99108.19
2023-03-13T18:46:00.494Z,99106.41
2023-03-13T18:51:05.024Z,99109.00
2023-03-13T18:56:17.115Z,99109.00
2023-03-13T19:01:22.677Z,99090.56
2023-03-13T19:06:27.966Z,99085.28
2023-03-13T19:11:33.739Z,99071.22
2023-03-13T19:16:39.742Z,99068.56
2023-03-13T19:21:45.870Z,99062.41
2023-03-13T19:26:54.062Z,99038.66
2023-03-13T19:31:59.697Z,99050.94
2023-03-13T19:37:03.178Z,99047.44
2023-03-13T19:42:08.317Z,99046.53
2023-03-13T19:47:15.631Z,99035.97
2023-03-13T19:52:19.258Z,99039.47
2023-03-13T19:57:23.894Z,99049.03
2023-03-13T20:02:27.263Z,99053.41
2023-03-13T20:07:30.639Z,99055.97
2023-03-13T20:12:35.420Z,99046.34
2023-03-13T20:17:38.600Z,99030.53
2023-03-13T20:22:44.297Z,98999.75
2023-03-13T20:27:56.680Z,99012.91
2023-03-13T20:33:00.164Z,99013.84
2023-03-13T20:38:05.202Z,99011.25
2023-03-13T20:43:09.979Z,99018.34
2023-03-13T20:48:13.162Z,99015.72
2023-03-13T20:53:16.198Z,99015.72
2023-03-13T20:58:21.053Z,99010.47
2023-03-13T21:03:24.190Z,99018.38
2023-03-13T21:08:27.563Z,99046.44
2023-03-13T21:13:31.979Z,99031.56
2023-03-13T21:18:35.368Z,99022.81
2023-03-13T21:23:39.445Z,99021.09
2023-03-13T21:28:44.005Z,99011.47
2023-03-13T21:33:48.075Z,98979.91
2023-03-13T21:38:51.643Z,98973.78
2023-03-13T21:43:56.477Z,98940.50
2023-03-13T21:49:00.288Z,98930.84
2023-03-13T21:54:04.271Z,98929.94
2023-03-13T21:59:08.966Z,98925.53
2023-03-13T22:04:13.112Z,98910.59
2023-03-13T22:09:16.324Z,98943.91
2023-03-13T22:14:22.483Z,98938.59
2023-03-13T22:19:25.574Z,98947.38
2023-03-13T22:24:28.729Z,98935.13
2023-03-13T22:29:34.734Z,98919.41
2023-03-13T22:34:38.268Z,98913.28
2023-03-13T22:39:41.632Z,98901.91
2023-03-13T22:44:46.324Z,98899.28
2023-03-13T22:49:50.561Z,98906.31
2023-03-13T22:54:53.657Z,98897.56
2023-03-13T22:59:59.221Z,98905.50
2023-03-13T23:05:04.758Z,98930.94
2023-03-13T23:10:12.285Z,98936.22
2023-03-13T23:15:16.690Z,98909.03
2023-03-13T23:20:20.051Z,98919.53
2023-03-13T23:25:24.006Z,98923.00
2023-03-13T23:30:28.618Z,98912.47
2023-03-13T23:35:31.845Z,98902.78
2023-03-13T23:40:35.141Z,98926.47
2023-03-13T23:45:39.738Z,98924.69
2023-03-13T23:50:42.829Z,98912.44
2023-03-13T23:55:45.927Z,98929.06
